createdAt,value
2023-04-02T00:01:21.074Z,95088.56
2023-04-02T00:03:54.213Z,95084.41
2023-04-02T00:06:33.225Z,95090.28
2023-04-02T00:09:13.875Z,95096.09
2023-04-02T00:11:45.873Z,95090.09
2023-04-02T00:14:30.008Z,95082.59
2023-04-02T00:17:01.781Z,95085.66
2023-04-02T00:19:42.035Z,95087.97
2023-04-02T00:22:19.914Z,95079.53
2023-04-02T00:24:53.121Z,95072.78
2023-04-02T00:27:21.642Z,95083.09
2023-04-02T00:29:55.558Z,95088.13
2023-04-02T00:32:35.264Z,95074.47
2023-04-02T00:35:05.192Z,95081.22
2023-04-02T00:37:42.527Z,95087.19
2023-04-02T00:40:25.269Z,95066.56
2023-04-02T00:42:54.802Z,95085.94
2023-04-02T00:45:33.494Z,95070.41
2023-04-02T00:48:21.119Z,95079.03
2023-04-02T00:50:51.309Z,95085.09
2023-04-02T00:53:31.414Z,95081.59
2023-04-02T00:56:00.831Z,95061.47
2023-04-02T00:58:34.597Z,95059.13
2023-04-02T01:01:04.870Z,95066.09
2023-04-02T01:03:37.312Z,95061.66
2023-04-02T01:06:16.153Z,95070.06
2023-04-02T01:09:06.238Z,95064.38
2023-04-02T01:11:55.224Z,95067.78
2023-04-02T01:14:33.433Z,95054.56
2023-04-02T01:17:32.914Z,95070.78
2023-04-02T01:20:13.169Z,95066.97
2023-04-02T01:23:14.822Z,95064.66
2023-04-02T01:25:54.092Z,95061.91
2023-04-02T01:29:02.305Z,95070.50
2023-04-02T01:31:31.135Z,95060.22
2023-04-02T01:34:00.896Z,95068.38
2023-04-02T01:36:42.151Z,95066.50
2023-04-02T01:39:40.195Z,95062.19
2023-04-02T01:42:17.171Z,95070.91
2023-04-02T01:44:51.073Z,95063.88
2023-04-02T01:47:23.633Z,95068.72
2023-04-02T01:49:58.012Z,95056.75
2023-04-02T01:52:39.948Z,95065.69
2023-04-02T01:55:13.362Z,95061.69
2023-04-02T01:57:46.533Z,95072.00
2023-04-02T02:00:17.309Z,95063.22
2023-04-02T02:02:51.260Z,95056.97
2023-04-02T02:05:25.972Z,95066.69
2023-04-02T02:07:56.937Z,95070.22
2023-04-02T02:10:35.116Z,95069.25
2023-04-02T02:13:04.102Z,95053.19
2023-04-02T02:15:34.431Z,95065.53
2023-04-02T02:18:07.032Z,95072.56
2023-04-02T02:20:36.530Z,95063.34
2023-04-02T02:23:05.332Z,95071.34
2023-04-02T02:25:35.619Z,95068.59
2023-04-02T02:28:31.618Z,95071.03
2023-04-02T02:31:05.911Z,95051.88
2023-04-02T02:33:49.395Z,95072.88
2023-04-02T02:36:33.935Z,95066.75
2023-04-02T02:39:43.957Z,95067.34
2023-04-02T02:42:20.646Z,95064.88
2023-04-02T02:44:51.114Z,95046.72
2023-04-02T02:47:25.352Z,95050.13
2023-04-02T02:49:58.915Z,95048.00
2023-04-02T02:52:35.897Z,95047.06
2023-04-02T02:55:16.556Z,95052.75
2023-04-02T02:57:53.493Z,95062.97
2023-04-02T03:00:24.990Z,95052.06
2023-04-02T03:02:57.357Z,95068.50
2023-04-02T03:05:30.258Z,95068.63
2023-04-02T03:08:06.932Z,95059.63
2023-04-02T03:10:51.285Z,95066.19
2023-04-02T03:13:35.855Z,95068.53
2023-04-02T03:16:33.869Z,95061.31
2023-04-02T03:19:37.297Z,95059.38
2023-04-02T03:22:16.734Z,95056.06
2023-04-02T03:25:05.953Z,95067.34
2023-04-02T03:27:40.593Z,95066.03
2023-04-02T03:30:37.121Z,95059.25
2023-04-02T03:33:38.456Z,95071.16
2023-04-02T03:36:13.887Z,95061.81
2023-04-02T03:38:47.594Z,95062.50
2023-04-02T03:41:21.748Z,95065.44
2023-04-02T03:44:01.209Z,95058.22
2023-04-02T03:46:44.960Z,95062.56
2023-04-02T03:49:20.578Z,95050.66
2023-04-02T03:51:55.240Z,95051.66
2023-04-02T03:54:23.680Z,95051.72
2023-04-02T03:56:53.558Z,95038.16
2023-04-02T03:59:49.161Z,95056.44
2023-04-02T04:02:34.705Z,95048.59
2023-04-02T04:05:05.414Z,95061.81
2023-04-02T04:07:40.363Z,95058.34
2023-04-02T04:10:16.273Z,95061.16
2023-04-02T04:12:51.893Z,95070.69
2023-04-02T04:15:34.621Z,95074.25
2023-04-02T04:18:10.813Z,95077.09
2023-04-02T04:20:51.327Z,95074.00
2023-04-02T04:23:30.351Z,95076.06
2023-04-02T04:26:26.377Z,95086.72
2023-04-02T04:29:28.300Z,95093.72
2023-04-02T04:32:04.459Z,95083.31
2023-04-02T04:34:46.997Z,95086.00
2023-04-02T04:37:29.388Z,95083.25
2023-04-02T04:40:07.779Z,95074.91
2023-04-02T04:42:38.742Z,95091.94
2023-04-02T04:45:14.763Z,95087.84
2023-04-02T04:47:51.143Z,95087.91
2023-04-02T04:50:30.093Z,95087.03
2023-04-02T04:53:05.155Z,95080.88
2023-04-02T04:55:43.490Z,95092.03
2023-04-02T04:58:17.049Z,95079.69
2023-04-02T05:01:17.555Z,95081.59
2023-04-02T05:04:03.596Z,95082.94
2023-04-02T05:06:58.045Z,95084.22
2023-04-02T05:09:54.924Z,95088.41
2023-04-02T05:13:02.239Z,95094.16
2023-04-02T05:16:09.633Z,95090.00
2023-04-02T05:18:41.382Z,95087.19
2023-04-02T05:21:32.320Z,95096.22
2023-04-02T05:24:23.495Z,95082.03
2023-04-02T05:26:57.432Z,95089.50
2023-04-02T05:29:32.829Z,95091.22
2023-04-02T05:32:06.854Z,95087.19
2023-04-02T05:34:38.655Z,95090.75
2023-04-02T05:37:16.560Z,95099.81
2023-04-02T05:39:46.646Z,95099.47
2023-04-02T05:42:25.742Z,95085.50
2023-04-02T05:45:25.999Z,95097.38
2023-04-02T05:48:02.298Z,95095.56
2023-04-02T05:50:44.852Z,95082.50
2023-04-02T05:53:18.264Z,95100.63
2023-04-02T05:55:57.657Z,95084.25
2023-04-02T05:58:47.123Z,95095.88
2023-04-02T06:01:42.293Z,95094.09
2023-04-02T06:04:48.572Z,95100.53
2023-04-02T06:07:23.922Z,95103.00
2023-04-02T06:22:34.817Z,95083.06
2023-04-02T06:26:04.576Z,95069.22
2023-04-02T06:30:10.709Z,95097.50
2023-04-02T06:36:47.892Z,95065.06
2023-04-02T06:40:15.177Z,95081.66
2023-04-02T06:43:02.765Z,95069.34
2023-04-02T06:50:50.308Z,95039.91
2023-04-02T06:53:35.036Z,95073.69
2023-04-02T06:56:57.293Z,95076.44
2023-04-02T07:00:14.044Z,95061.00
2023-04-02T07:04:23.337Z,95068.38
2023-04-02T07:07:28.663Z,95062.25
2023-04-02T07:10:33.704Z,95038.94
2023-04-02T07:13:58.904Z,95038.56
2023-04-02T07:17:23.615Z,95053.25
2023-04-02T07:20:36.880Z,95033.47
2023-04-02T07:23:17.100Z,95035.84
2023-04-02T07:29:53.419Z,95029.53
2023-04-02T07:32:21.452Z,95010.47
2023-04-02T07:34:49.683Z,95035.38
2023-04-02T07:37:17.549Z,95031.31
2023-04-02T07:39:45.907Z,95036.94
2023-04-02T07:42:13.849Z,95022.81
2023-04-02T07:44:42.049Z,95020.94
2023-04-02T07:47:10.921Z,95020.38
2023-04-02T07:49:39.127Z,95017.75
2023-04-02T07:52:07.246Z,95028.38
2023-04-02T07:54:36.358Z,95016.53
2023-04-02T07:57:04.329Z,95017.03
2023-04-02T07:59:32.582Z,95015.44
2023-04-02T08:02:00.654Z,95016.09
2023-04-02T08:04:28.911Z,95016.31
2023-04-02T08:06:56.854Z,94990.47
2023-04-02T08:09:25.132Z,95017.91
2023-04-02T08:11:52.976Z,95002.66
2023-04-02T08:14:21.373Z,95005.47
2023-04-02T08:16:53.037Z,95004.47
2023-04-02T08:19:21.824Z,95006.31
2023-04-02T08:21:50.956Z,95002.66
2023-04-02T08:24:22.209Z,94994.03
2023-04-02T08:26:51.755Z,95001.50
2023-04-02T08:29:21.812Z,94990.09
2023-04-02T08:31:49.721Z,94992.97
2023-04-02T08:34:18.095Z,94983.44
2023-04-02T08:36:46.323Z,94996.66
2023-04-02T08:39:15.019Z,94971.28
2023-04-02T08:42:24.768Z,94982.19
2023-04-02T08:45:21.285Z,94960.56
2023-04-02T08:47:56.738Z,94972.81
2023-04-02T08:50:33.393Z,94976.47
2023-04-02T08:53:02.324Z,94977.81
2023-04-02T08:55:36.772Z,94969.38
2023-04-02T08:58:31.952Z,94965.16
2023-04-02T09:01:03.494Z,94970.88
2023-04-02T09:03:36.033Z,94957.84
2023-04-02T09:06:05.487Z,94959.22
2023-04-02T09:08:33.838Z,94953.88
2023-04-02T09:11:12.757Z,94958.66
2023-04-02T09:13:46.865Z,94961.59
2023-04-02T09:16:18.660Z,94940.78
2023-04-02T09:18:48.165Z,94948.00
2023-04-02T09:21:22.820Z,94944.69
2023-04-02T09:23:50.926Z,94946.59
2023-04-02T09:26:30.995Z,94946.00
2023-04-02T09:29:02.410Z,94943.84
2023-04-02T09:31:43.845Z,94934.06
2023-04-02T09:34:33.586Z,94936.13
2023-04-02T09:37:19.769Z,94937.94
2023-04-02T09:39:47.818Z,94936.94
2023-04-02T09:42:42.330Z,94946.22
2023-04-02T09:45:22.176Z,94926.78
2023-04-02T09:47:52.757Z,94916.94
2023-04-02T09:50:27.148Z,94934.56
2023-04-02T09:52:56.004Z,94921.53
2023-04-02T09:55:29.378Z,94932.81
2023-04-02T09:58:17.541Z,94922.19
2023-04-02T10:00:53.191Z,94922.50
2023-04-02T10:03:29.677Z,94919.22
2023-04-02T10:06:08.307Z,94922.00
2023-04-02T10:08:38.899Z,94914.78
2023-04-02T10:11:36.578Z,94908.50
2023-04-02T10:14:22.866Z,94903.63
2023-04-02T10:16:54.601Z,94904.66
2023-04-02T10:19:37.455Z,94887.84
2023-04-02T10:22:18.113Z,94906.31
2023-04-02T10:24:47.207Z,94903.81
2023-04-02T10:28:02.037Z,94901.53
2023-04-02T10:30:58.653Z,94892.84
2023-04-02T10:33:36.504Z,94883.75
2023-04-02T10:36:36.280Z,94889.16
2023-04-02T10:39:14.278Z,94883.69
2023-04-02T10:42:17.832Z,94892.72
2023-04-02T10:44:48.502Z,94882.03
2023-04-02T10:47:22.864Z,94879.25
2023-04-02T10:50:18.994Z,94885.19
2023-04-02T10:53:15.900Z,94890.13
2023-04-02T10:56:09.136Z,94880.38
2023-04-02T10:58:46.591Z,94882.13
2023-04-02T11:01:25.100Z,94867.16
2023-04-02T11:03:59.395Z,94873.81
2023-04-02T11:06:29.015Z,94877.09
2023-04-02T11:09:07.776Z,94855.47
2023-04-02T11:11:44.965Z,94853.22
2023-04-02T11:14:25.588Z,94844.84
2023-04-02T11:16:55.596Z,94867.97
2023-04-02T11:19:32.749Z,94853.50
2023-04-02T11:22:04.445Z,94862.63
2023-04-02T11:24:53.695Z,94848.19
2023-04-02T11:27:29.981Z,94860.38
2023-04-02T11:30:18.421Z,94856.53
2023-04-02T11:32:50.567Z,94850.84
2023-04-02T11:35:31.043Z,94877.31
2023-04-02T11:38:23.888Z,94845.50
2023-04-02T11:40:58.826Z,94842.03
2023-04-02T11:43:37.505Z,94841.84
2023-04-02T11:46:17.454Z,94857.88
2023-04-02T11:48:48.621Z,94863.72
2023-04-02T11:51:23.265Z,94863.13
2023-04-02T11:53:54.133Z,94860.88
2023-04-02T11:56:32.367Z,94841.88
2023-04-02T11:59:38.619Z,94870.47
2023-04-02T12:02:42.382Z,94845.81
2023-04-02T12:05:37.939Z,94859.06
2023-04-02T12:08:17.482Z,94848.13
2023-04-02T12:11:00.771Z,94882.16
2023-04-02T12:13:41.129Z,94880.22
2023-04-02T12:16:11.218Z,94880.28
2023-04-02T12:18:48.185Z,94867.13
2023-04-02T12:21:21.139Z,94868.34
2023-04-02T12:23:53.481Z,94871.13
2023-04-02T12:26:38.543Z,94871.72
2023-04-02T12:29:27.657Z,94884.59
2023-04-02T12:31:58.046Z,94870.63
2023-04-02T12:34:31.016Z,94872.66
2023-04-02T12:37:05.172Z,94872.28
2023-04-02T12:39:35.418Z,94876.16
2023-04-02T12:42:03.373Z,94875.06
2023-04-02T12:44:32.142Z,94883.97
2023-04-02T12:47:00.217Z,94894.72
2023-04-02T12:49:31.892Z,94877.72
2023-04-02T12:52:04.199Z,94877.13
2023-04-02T12:55:05.312Z,94871.50
2023-04-02T12:57:36.603Z,94871.13
2023-04-02T13:00:20.256Z,94889.13
2023-04-02T13:02:59.092Z,94885.16
2023-04-02T13:05:47.465Z,94891.25
2023-04-02T13:08:22.870Z,94891.72
2023-04-02T13:11:01.133Z,94895.03
2023-04-02T13:13:41.312Z,94893.25
2023-04-02T13:16:16.161Z,94902.41
2023-04-02T13:18:47.309Z,94888.41
2023-04-02T13:21:20.675Z,94904.97
2023-04-02T13:23:48.799Z,94918.38
2023-04-02T13:26:23.311Z,94891.41
2023-04-02T13:29:25.515Z,94918.50
2023-04-02T13:31:57.192Z,94910.13
2023-04-02T13:34:29.119Z,94909.06
2023-04-02T13:36:58.528Z,94911.63
2023-04-02T13:39:27.527Z,94924.78
2023-04-02T13:42:00.443Z,94925.50
2023-04-02T13:44:35.355Z,94913.66
2023-04-02T13:47:07.054Z,94918.81
2023-04-02T13:49:36.179Z,64721.34
2023-04-02T13:52:14.057Z,64721.34
2023-04-02T13:54:45.627Z,64721.34
2023-04-02T13:57:14.654Z,64721.34
2023-04-02T13:59:42.539Z,64721.34
2023-04-02T14:02:19.292Z,64721.34
2023-04-02T14:04:51.123Z,64721.34
2023-04-02T14:08:17.021Z,64721.34
2023-04-02T14:10:58.337Z,64721.34
2023-04-02T14:13:45.090Z,64721.34
2023-04-02T14:16:28.220Z,64721.34
2023-04-02T14:19:06.608Z,64721.34
2023-04-02T14:21:55.825Z,64721.34
2023-04-02T14:24:50.142Z,64721.34
2023-04-02T14:27:56.191Z,64721.34
2023-04-02T14:30:44.330Z,64721.34
2023-04-02T14:33:42.966Z,64721.34
2023-04-02T14:36:17.112Z,64721.34
2023-04-02T14:38:58.000Z,64721.34
2023-04-02T14:41:29.241Z,64721.34
2023-04-02T14:44:02.419Z,64721.34
2023-04-02T14:46:34.873Z,64721.34
2023-04-02T14:49:29.291Z,64721.34
2023-04-02T14:51:59.229Z,64721.34
2023-04-02T14:54:52.776Z,64721.34
2023-04-02T14:57:28.122Z,64721.34
2023-04-02T15:00:08.661Z,64721.34
2023-04-02T15:02:46.205Z,64721.34
2023-04-02T15:05:41.954Z,64721.34
2023-04-02T15:08:22.961Z,64721.34
2023-04-02T15:11:02.997Z,64721.34
2023-04-02T15:13:57.126Z,64721.34
2023-04-02T15:16:29.029Z,64721.34
2023-04-02T15:18:58.930Z,64721.34
2023-04-02T15:21:57.494Z,64721.34
2023-04-02T15:24:36.537Z,64721.34
2023-04-02T15:27:26.094Z,64721.34
2023-04-02T15:30:12.019Z,64721.34
2023-04-02T15:32:42.042Z,64721.34
2023-04-02T15:35:28.273Z,64721.34
2023-04-02T15:37:59.250Z,64721.34
2023-04-02T15:40:45.972Z,64721.34
2023-04-02T15:43:16.778Z,64721.34
2023-04-02T15:45:50.741Z,64721.34
2023-04-02T15:48:28.958Z,64721.34
2023-04-02T15:51:08.529Z,64721.34
2023-04-02T15:54:14.495Z,64721.34
2023-04-02T15:57:01.854Z,64721.34
2023-04-02T15:59:50.119Z,64721.34
2023-04-02T16:02:46.694Z,64721.34
2023-04-02T16:05:40.782Z,64721.34
2023-04-02T16:08:29.294Z,64721.34
2023-04-02T16:10:57.237Z,64721.34
2023-04-02T16:13:40.491Z,64721.34
2023-04-02T16:16:36.406Z,64721.34
2023-04-02T16:19:40.115Z,64721.34
2023-04-02T16:22:11.878Z,64721.34
2023-04-02T16:24:43.701Z,64721.34
2023-04-02T16:27:54.506Z,64721.34
2023-04-02T16:30:49.720Z,64721.34
2023-04-02T16:33:49.151Z,64721.34
2023-04-02T16:36:42.581Z,64721.34
2023-04-02T16:39:42.462Z,64721.34
2023-04-02T16:42:23.522Z,64721.34
2023-04-02T16:49:31.234Z,64721.34
2023-04-02T16:52:22.068Z,64721.34
2023-04-02T16:54:52.688Z,64721.34
2023-04-02T16:57:58.010Z,64721.34
2023-04-02T17:01:01.771Z,64721.34
2023-04-02T17:03:39.111Z,64721.34
2023-04-02T17:06:22.855Z,64721.34
2023-04-02T17:09:06.450Z,64721.34
2023-04-02T17:11:42.737Z,64721.34
2023-04-02T17:14:27.267Z,64721.34
2023-04-02T17:17:03.877Z,64721.34
2023-04-02T17:19:33.175Z,64721.34
2023-04-02T17:22:04.980Z,64721.34
2023-04-02T17:24:48.149Z,64721.34
2023-04-02T17:27:43.712Z,64721.34
2023-04-02T17:30:35.124Z,64721.34
2023-04-02T17:33:11.778Z,64721.34
2023-04-02T17:36:00.917Z,64721.34
2023-04-02T17:38:45.798Z,64721.34
2023-04-02T17:41:37.415Z,64721.34
2023-04-02T17:44:08.141Z,64721.34
2023-04-02T17:47:13.156Z,64721.34
2023-04-02T17:49:52.586Z,64721.34
2023-04-02T17:52:29.103Z,64721.34
2023-04-02T17:54:59.581Z,64721.34
2023-04-02T17:57:39.543Z,64721.34
2023-04-02T18:00:28.821Z,64721.34
2023-04-02T18:03:16.147Z,64721.34
2023-04-02T18:05:53.700Z,64721.34
2023-04-02T18:09:03.297Z,64721.34
2023-04-02T18:11:45.331Z,64721.34
2023-04-02T18:14:34.668Z,64721.34
2023-04-02T18:17:24.113Z,64721.34
2023-04-02T18:19:59.367Z,64721.34
2023-04-02T18:22:41.632Z,64721.34
2023-04-02T18:25:46.181Z,64721.34
2023-04-02T18:28:30.917Z,64721.34
2023-04-02T18:31:23.057Z,64721.34
2023-04-02T18:34:14.525Z,64721.34
2023-04-02T18:37:27.536Z,64721.34
2023-04-02T18:40:37.091Z,64721.34
2023-04-02T18:43:37.990Z,64721.34
2023-04-02T18:46:21.298Z,64721.34
2023-04-02T18:49:00.307Z,64721.34
2023-04-02T18:51:34.428Z,64721.34
2023-04-02T18:54:44.181Z,64721.34
2023-04-02T18:57:16.551Z,64721.34
2023-04-02T19:00:16.992Z,64721.34
2023-04-02T19:02:50.939Z,64721.34
2023-04-02T19:05:31.478Z,64721.34
2023-04-02T19:08:19.467Z,64721.34
2023-04-02T19:10:53.631Z,64721.34
2023-04-02T19:13:22.308Z,64721.34
2023-04-02T19:16:01.357Z,64721.34
2023-04-02T19:18:59.482Z,64721.34
2023-04-02T19:21:47.350Z,64721.34
2023-04-02T19:24:36.800Z,64721.34
2023-04-02T19:37:08.444Z,64721.34
2023-04-02T19:40:56.211Z,64721.34
2023-04-02T19:43:38.703Z,64721.34
2023-04-02T19:46:53.180Z,64721.34
2023-04-02T19:50:37.528Z,64721.34
2023-04-02T19:57:17.891Z,64721.34
2023-04-02T20:01:06.625Z,64721.34
2023-04-02T20:11:22.697Z,64721.34
2023-04-02T20:14:15.649Z,64721.34
2023-04-02T20:23:43.958Z,64721.34
2023-04-02T20:26:55.511Z,64721.34
2023-04-02T20:29:36.136Z,64721.34
2023-04-02T20:35:46.080Z,64721.34
2023-04-02T20:39:26.227Z,64721.34
2023-04-02T20:43:39.960Z,64721.34
2023-04-02T20:47:14.766Z,64721.34
2023-04-02T20:49:56.172Z,64721.34
2023-04-02T20:53:21.807Z,64721.34
2023-04-02T20:57:27.968Z,64721.34
2023-04-02T21:05:02.079Z,64721.34
2023-04-02T21:09:22.668Z,64721.34
2023-04-02T21:12:12.583Z,64721.34
2023-04-02T21:15:06.538Z,64721.34
2023-04-02T21:19:05.258Z,64721.34
2023-04-02T21:31:04.555Z,64721.34
2023-04-02T21:38:00.222Z,64721.34
2023-04-02T21:40:58.210Z,64721.34
2023-04-02T21:44:41.466Z,64721.34
2023-04-02T21:48:15.694Z,64721.34
2023-04-02T21:55:02.638Z,64721.34
2023-04-02T21:57:33.819Z,64721.34
2023-04-02T22:01:26.094Z,64721.34
2023-04-02T22:04:11.716Z,64721.34
2023-04-02T22:07:52.299Z,64721.34
2023-04-02T22:10:57.816Z,64721.34
2023-04-02T22:14:04.901Z,64721.34
2023-04-02T22:17:08.623Z,64721.34
2023-04-02T22:23:23.770Z,64721.34
2023-04-02T22:26:23.906Z,64721.34
2023-04-02T22:29:03.072Z,64721.34
2023-04-02T22:31:38.961Z,64721.34
2023-04-02T22:34:32.715Z,64721.34
2023-04-02T22:37:52.130Z,64721.34
2023-04-02T22:41:58.710Z,64721.34
2023-04-02T22:44:35.276Z,64721.34
2023-04-02T22:47:21.590Z,64721.34
2023-04-02T22:49:58.365Z,64721.34
2023-04-02T22:55:34.424Z,64721.34
2023-04-02T22:58:02.278Z,64721.34
2023-04-02T23:00:31.492Z,64721.34
2023-04-02T23:03:01.256Z,64721.34
2023-04-02T23:05:30.082Z,64721.34
2023-04-02T23:07:59.410Z,64721.34
2023-04-02T23:10:33.985Z,64721.34
2023-04-02T23:13:02.001Z,64721.34
2023-04-02T23:15:30.235Z,64721.34
2023-04-02T23:17:58.248Z,64721.34
2023-04-02T23:20:27.008Z,64721.34
2023-04-02T23:22:54.810Z,64721.34
2023-04-02T23:25:24.377Z,64721.34
2023-04-02T23:27:52.348Z,64721.34
2023-04-02T23:30:20.575Z,64721.34
2023-04-02T23:32:48.421Z,64721.34
2023-04-02T23:35:17.981Z,64721.34
2023-04-02T23:37:49.348Z,64721.34
2023-04-02T23:40:18.050Z,64721.34
2023-04-02T23:42:45.827Z,64721.34
2023-04-02T23:45:14.261Z,64721.34
2023-04-02T23:47:43.593Z,64721.34
2023-04-02T23:50:12.018Z,64721.34
2023-04-02T23:52:40.391Z,64721.34
2023-04-02T23:55:09.087Z,64721.34
2023-04-02T23:57:36.975Z,64721.34
